createdAt,value
2023-05-25T00:01:43.529Z,99325.45
2023-05-25T00:06:40.681Z,99328.54
2023-05-25T00:09:07.801Z,99327.20
2023-05-25T00:11:34.960Z,99327.44
2023-05-25T00:14:01.581Z,99332.91
2023-05-25T00:16:28.470Z,99337.55
2023-05-25T00:18:57.017Z,99335.46
2023-05-25T00:21:25.147Z,99338.95
2023-05-25T00:23:51.624Z,99341.61
2023-05-25T00:26:18.188Z,99341.61
2023-05-25T00:28:44.775Z,99341.23
2023-05-25T00:31:14.273Z,99335.14
2023-05-25T00:33:41.164Z,99332.73
2023-05-25T00:36:08.699Z,99329.89
2023-05-25T00:38:37.567Z,99329.45
2023-05-25T00:41:05.661Z,99324.14
2023-05-25T00:43:34.449Z,99327.77
2023-05-25T00:46:01.853Z,99324.68
2023-05-25T00:48:29.242Z,99323.27
2023-05-25T00:50:57.489Z,99320.50
2023-05-25T00:53:25.285Z,99320.92
2023-05-25T00:56:04.952Z,99319.43
2023-05-25T00:58:33.345Z,99320.64
2023-05-25T01:01:00.123Z,99321.21
2023-05-25T01:03:29.333Z,99321.71
2023-05-25T01:05:57.636Z,99325.64
2023-05-25T01:08:24.631Z,99330.55
2023-05-25T01:10:52.474Z,99330.27
2023-05-25T01:13:19.639Z,99331.48
2023-05-25T01:15:47.069Z,99331.59
2023-05-25T01:18:14.966Z,99328.89
2023-05-25T01:21:12.572Z,99327.48
2023-05-25T01:23:43.573Z,99323.87
2023-05-25T01:26:12.709Z,99317.75
2023-05-25T01:28:42.541Z,99317.00
2023-05-25T01:31:09.924Z,99319.45
2023-05-25T01:33:36.751Z,99322.30
2023-05-25T01:36:04.092Z,99323.85
2023-05-25T01:38:31.261Z,99324.15
2023-05-25T01:40:57.999Z,99327.70
2023-05-25T01:43:26.821Z,99327.80
2023-05-25T01:45:57.339Z,99331.41
2023-05-25T01:48:25.945Z,99334.89
2023-05-25T01:51:00.953Z,99338.41
2023-05-25T01:53:48.644Z,99338.02
2023-05-25T01:56:15.957Z,99335.02
2023-05-25T01:58:44.265Z,99334.42
2023-05-25T02:01:13.268Z,99339.94
2023-05-25T02:03:41.327Z,99341.64
2023-05-25T02:06:09.085Z,99345.25
2023-05-25T02:08:35.862Z,99345.05
2023-05-25T02:11:03.187Z,99341.58
2023-05-25T02:13:31.893Z,99340.52
2023-05-25T02:15:58.683Z,99341.30
2023-05-25T02:18:26.110Z,99342.92
2023-05-25T02:20:54.492Z,99342.99
2023-05-25T02:23:21.803Z,99345.30
2023-05-25T02:25:48.680Z,99345.05
2023-05-25T02:28:16.496Z,99343.77
2023-05-25T02:30:43.476Z,99343.61
2023-05-25T02:33:12.449Z,99346.23
2023-05-25T02:35:39.108Z,99342.80
2023-05-25T02:38:07.078Z,99348.47
2023-05-25T02:40:35.535Z,99347.66
2023-05-25T02:43:02.385Z,99351.73
2023-05-25T02:45:29.191Z,99353.96
2023-05-25T02:47:55.958Z,99354.87
2023-05-25T02:50:22.902Z,99356.56
2023-05-25T02:52:51.702Z,99357.21
2023-05-25T02:55:18.344Z,99356.55
2023-05-25T02:57:45.495Z,99357.41
2023-05-25T03:00:16.599Z,99360.03
2023-05-25T03:02:46.204Z,99357.71
2023-05-25T03:05:12.901Z,99356.09
2023-05-25T03:07:41.554Z,99350.77
2023-05-25T03:10:10.848Z,99356.45
2023-05-25T03:12:37.794Z,99357.06
2023-05-25T03:15:05.662Z,99358.34
2023-05-25T03:17:36.122Z,99356.00
2023-05-25T03:20:03.767Z,99356.77
2023-05-25T03:22:32.252Z,99355.55
2023-05-25T03:24:59.188Z,99356.08
2023-05-25T03:27:26.042Z,99355.19
2023-05-25T03:29:52.854Z,99355.30
2023-05-25T03:32:19.981Z,99361.33
2023-05-25T03:34:47.107Z,99359.33
2023-05-25T03:37:15.092Z,99362.16
2023-05-25T03:39:42.177Z,99368.30
2023-05-25T03:42:08.849Z,99366.41
2023-05-25T03:44:36.197Z,99366.77
2023-05-25T03:47:04.274Z,99364.48
2023-05-25T03:49:31.740Z,99362.66
2023-05-25T03:52:01.434Z,99357.82
2023-05-25T03:54:28.423Z,99355.73
2023-05-25T03:56:56.312Z,99357.98
2023-05-25T03:59:25.192Z,99356.80
2023-05-25T04:01:51.827Z,99357.77
2023-05-25T04:04:20.897Z,99358.91
2023-05-25T04:06:48.606Z,99356.33
2023-05-25T04:09:15.258Z,99363.48
2023-05-25T04:11:41.905Z,99366.89
2023-05-25T04:14:08.609Z,99361.05
2023-05-25T04:16:40.799Z,99365.51
2023-05-25T04:19:08.565Z,99368.79
2023-05-25T04:21:36.433Z,99372.55
2023-05-25T04:24:03.352Z,99378.61
2023-05-25T04:26:31.458Z,99381.02
2023-05-25T04:29:01.448Z,99383.24
2023-05-25T04:31:45.364Z,99387.63
2023-05-25T04:34:29.224Z,99383.11
2023-05-25T04:37:08.555Z,99382.92
2023-05-25T04:39:36.243Z,99373.97
2023-05-25T04:42:04.199Z,99370.68
2023-05-25T04:44:32.178Z,99371.21
2023-05-25T04:47:00.863Z,99365.95
2023-05-25T04:49:31.592Z,99372.70
2023-05-25T04:51:58.833Z,99367.61
2023-05-25T04:54:27.997Z,99369.45
2023-05-25T04:56:57.700Z,99371.37
2023-05-25T04:59:24.530Z,99369.60
2023-05-25T05:01:51.186Z,99371.11
2023-05-25T05:04:17.846Z,99371.25
2023-05-25T05:06:45.825Z,99370.27
2023-05-25T05:09:17.676Z,99373.02
2023-05-25T05:11:45.674Z,99372.39
2023-05-25T05:14:13.009Z,99374.65
2023-05-25T05:16:41.672Z,99370.58
2023-05-25T05:19:09.252Z,99372.19
2023-05-25T05:21:37.140Z,99367.20
2023-05-25T05:24:05.858Z,99369.89
2023-05-25T05:26:41.300Z,99370.48
2023-05-25T05:29:17.417Z,99372.58
2023-05-25T05:31:47.403Z,99373.90
2023-05-25T05:34:14.273Z,99375.34
2023-05-25T05:36:55.875Z,99377.20
2023-05-25T05:39:25.030Z,99377.77
2023-05-25T05:41:51.916Z,99381.79
2023-05-25T05:44:21.087Z,99386.11
2023-05-25T05:46:48.355Z,99383.84
2023-05-25T05:49:15.621Z,99389.08
2023-05-25T05:51:45.044Z,99383.25
2023-05-25T05:54:11.866Z,99388.51
2023-05-25T05:56:39.066Z,99389.44
2023-05-25T05:59:06.133Z,99390.60
2023-05-25T06:01:33.285Z,99389.41
2023-05-25T06:04:00.583Z,99385.48
2023-05-25T06:06:28.289Z,99384.98
2023-05-25T06:08:58.433Z,99389.16
2023-05-25T06:11:26.128Z,99387.66
2023-05-25T06:13:53.181Z,99385.13
2023-05-25T06:16:20.031Z,99385.12
2023-05-25T06:18:47.022Z,99388.58
2023-05-25T06:21:13.823Z,99389.63
2023-05-25T06:23:40.874Z,99391.14
2023-05-25T06:26:08.320Z,99392.73
2023-05-25T06:28:36.080Z,99387.05
2023-05-25T06:31:03.275Z,99384.61
2023-05-25T06:33:31.276Z,99386.48
2023-05-25T06:36:00.030Z,99385.97
2023-05-25T06:38:27.747Z,99385.70
2023-05-25T06:40:54.691Z,99384.55
2023-05-25T06:43:21.409Z,99385.14
2023-05-25T06:46:17.359Z,99390.31
2023-05-25T06:48:45.184Z,99391.73
2023-05-25T06:51:11.801Z,99388.13
2023-05-25T06:53:41.132Z,99387.55
2023-05-25T06:56:08.703Z,99386.40
2023-05-25T06:58:35.436Z,99390.20
2023-05-25T07:01:02.387Z,99390.83
2023-05-25T07:03:29.705Z,99391.39
2023-05-25T07:05:56.233Z,99391.98
2023-05-25T07:08:23.276Z,99394.66
2023-05-25T07:10:50.550Z,99393.36
2023-05-25T07:13:17.707Z,99394.73
2023-05-25T07:15:44.824Z,99390.44
2023-05-25T07:18:11.940Z,99388.94
2023-05-25T07:20:43.188Z,99387.55
2023-05-25T07:23:10.908Z,99388.21
2023-05-25T07:25:37.954Z,99388.56
2023-05-25T07:28:05.114Z,99389.42
2023-05-25T07:30:32.152Z,99393.44
2023-05-25T07:32:59.568Z,99391.90
2023-05-25T07:35:26.576Z,99393.26
2023-05-25T07:37:57.254Z,99397.09
2023-05-25T07:40:24.045Z,99397.17
2023-05-25T07:42:51.157Z,99394.08
2023-05-25T07:45:18.142Z,99392.27
2023-05-25T07:47:44.979Z,99394.81
2023-05-25T07:50:11.788Z,99391.63
2023-05-25T07:52:38.546Z,99387.43
2023-05-25T07:55:06.403Z,99389.80
2023-05-25T07:57:33.391Z,99393.21
2023-05-25T08:00:00.262Z,99392.07
2023-05-25T08:02:27.004Z,99388.93
2023-05-25T08:04:53.819Z,99390.30
2023-05-25T08:07:20.960Z,99388.63
2023-05-25T08:09:47.678Z,99387.27
2023-05-25T08:12:34.332Z,99387.39
2023-05-25T08:15:01.293Z,99389.30
2023-05-25T08:17:28.218Z,99385.05
2023-05-25T08:19:55.859Z,99383.56
2023-05-25T08:22:22.678Z,99382.94
2023-05-25T08:24:49.456Z,99381.23
2023-05-25T08:27:17.451Z,99380.43
2023-05-25T08:29:44.395Z,99379.05
2023-05-25T08:32:11.096Z,99378.54
2023-05-25T08:34:38.353Z,99380.15
2023-05-25T08:37:05.681Z,99377.28
2023-05-25T08:39:34.791Z,99376.91
2023-05-25T08:42:01.853Z,99381.16
2023-05-25T08:44:28.817Z,99377.90
2023-05-25T08:46:56.391Z,99375.20
2023-05-25T08:49:23.502Z,99371.11
2023-05-25T08:51:53.967Z,99360.55
2023-05-25T08:54:50.861Z,99364.15
2023-05-25T08:57:31.642Z,99363.79
2023-05-25T09:00:18.003Z,99363.20
2023-05-25T09:03:10.291Z,99362.27
2023-05-25T09:05:38.153Z,99361.40
2023-05-25T09:08:06.302Z,99353.95
2023-05-25T09:10:36.717Z,99354.48
2023-05-25T09:13:19.067Z,99355.19
2023-05-25T09:15:48.425Z,99358.48
2023-05-25T09:18:16.283Z,99355.55
2023-05-25T09:20:46.181Z,99355.95
2023-05-25T09:23:14.996Z,99348.80
2023-05-25T09:25:41.816Z,99345.19
2023-05-25T09:28:25.739Z,99348.04
2023-05-25T09:30:54.064Z,99344.99
2023-05-25T09:33:20.991Z,99343.05
2023-05-25T09:35:47.753Z,99344.02
2023-05-25T09:38:16.337Z,99342.44
2023-05-25T09:40:43.880Z,99337.99
2023-05-25T09:43:21.912Z,99338.76
2023-05-25T09:45:55.580Z,99335.63
2023-05-25T09:48:23.731Z,99329.04
2023-05-25T09:50:50.980Z,99329.84
2023-05-25T09:53:17.940Z,99326.42
2023-05-25T09:58:18.312Z,99318.60
2023-05-25T10:00:46.081Z,99321.42
2023-05-25T10:03:14.615Z,99316.20
2023-05-25T10:05:41.273Z,99314.52
2023-05-25T10:08:08.789Z,99310.80
2023-05-25T10:10:35.600Z,99307.33
2023-05-25T10:13:02.498Z,99303.14
2023-05-25T10:15:30.160Z,99298.63
2023-05-25T10:17:57.239Z,99297.05
2023-05-25T10:20:25.467Z,99295.08
2023-05-25T10:23:12.711Z,99294.95
2023-05-25T10:25:41.567Z,99291.11
2023-05-25T10:28:28.606Z,99292.22
2023-05-25T10:30:57.141Z,99293.66
2023-05-25T10:33:23.866Z,99291.64
2023-05-25T10:36:02.364Z,99297.08
2023-05-25T10:38:35.728Z,99294.75
2023-05-25T10:41:02.640Z,99300.48
2023-05-25T10:43:29.306Z,99300.98
2023-05-25T10:45:57.434Z,99299.67
2023-05-25T10:48:28.909Z,99296.60
2023-05-25T10:50:56.097Z,99302.52
2023-05-25T10:53:23.146Z,99307.77
2023-05-25T10:55:53.091Z,99310.90
2023-05-25T10:58:21.340Z,99314.70
2023-05-25T11:01:01.411Z,99318.19
2023-05-25T11:04:11.297Z,99324.50
2023-05-25T11:06:39.898Z,99330.98
2023-05-25T11:09:06.618Z,99325.59
2023-05-25T11:11:42.683Z,99319.48
2023-05-25T11:14:23.195Z,99314.55
2023-05-25T11:17:14.002Z,99307.33
2023-05-25T11:19:40.805Z,99305.23
2023-05-25T11:22:41.996Z,99305.96
2023-05-25T11:25:37.388Z,99306.17
2023-05-25T11:28:06.000Z,99309.48
2023-05-25T11:30:33.115Z,99313.17
2023-05-25T11:33:03.979Z,99324.23
2023-05-25T11:35:33.348Z,99325.62
2023-05-25T11:38:00.511Z,99329.02
2023-05-25T11:40:30.897Z,99330.45
2023-05-25T11:43:00.255Z,99329.30
2023-05-25T11:45:32.919Z,99328.65
2023-05-25T11:47:59.951Z,99324.42
2023-05-25T11:50:27.737Z,99327.46
2023-05-25T11:52:54.294Z,99325.48
2023-05-25T11:55:20.979Z,99326.40
2023-05-25T11:57:54.728Z,99320.15
2023-05-25T12:00:26.330Z,99322.02
2023-05-25T12:02:53.199Z,99314.52
2023-05-25T12:05:23.387Z,99311.33
2023-05-25T12:07:53.095Z,99315.08
2023-05-25T12:10:21.977Z,99315.02
2023-05-25T12:12:50.946Z,99313.67
2023-05-25T12:15:24.099Z,99309.08
2023-05-25T12:17:51.244Z,99307.84
2023-05-25T12:20:18.059Z,99301.39
2023-05-25T12:22:46.132Z,99301.01
2023-05-25T12:25:13.635Z,99301.49
2023-05-25T12:27:40.479Z,99302.71
2023-05-25T12:30:08.805Z,99304.48
2023-05-25T12:33:01.997Z,99298.90
2023-05-25T12:35:31.547Z,99294.13
2023-05-25T12:38:11.567Z,99295.14
2023-05-25T12:40:39.740Z,99296.52
2023-05-25T12:43:06.395Z,99294.35
2023-05-25T12:45:39.180Z,99293.86
2023-05-25T12:48:06.215Z,99291.79
2023-05-25T12:50:33.235Z,99290.30
2023-05-25T12:53:02.126Z,99286.06
2023-05-25T12:55:30.480Z,99285.34
2023-05-25T12:58:01.621Z,99283.37
2023-05-25T13:00:31.482Z,99286.73
2023-05-25T13:02:58.532Z,99289.53
2023-05-25T13:05:29.379Z,99287.77
2023-05-25T13:07:57.154Z,99282.34
2023-05-25T13:10:24.312Z,99282.45
2023-05-25T13:12:53.428Z,99277.68
2023-05-25T13:15:23.348Z,99279.27
2023-05-25T13:17:50.382Z,99279.95
2023-05-25T13:20:18.556Z,99278.18
2023-05-25T13:22:46.672Z,99279.16
2023-05-25T13:25:14.135Z,99284.31
2023-05-25T13:27:45.772Z,99284.09
2023-05-25T13:30:15.519Z,99285.05
2023-05-25T13:32:45.121Z,99284.60
2023-05-25T13:35:17.909Z,99287.14
2023-05-25T13:37:47.170Z,99287.80
2023-05-25T13:40:14.276Z,99290.00
2023-05-25T13:42:41.687Z,99285.77
2023-05-25T13:45:09.436Z,99287.79
2023-05-25T13:47:38.403Z,99289.81
2023-05-25T13:50:06.806Z,99280.23
2023-05-25T13:52:34.153Z,99275.92
2023-05-25T13:55:01.318Z,99273.85
2023-05-25T13:57:27.963Z,99272.80
2023-05-25T13:59:54.810Z,99270.41
2023-05-25T14:02:21.702Z,99271.48
2023-05-25T14:04:48.483Z,99272.41
2023-05-25T14:07:15.276Z,99280.55
2023-05-25T14:09:41.922Z,99279.46
2023-05-25T14:12:08.797Z,99281.33
2023-05-25T14:14:35.853Z,99280.98
2023-05-25T14:17:02.694Z,99283.89
2023-05-25T14:19:29.751Z,99286.67
2023-05-25T14:22:11.837Z,99282.02
2023-05-25T14:24:40.126Z,99281.36
2023-05-25T14:27:06.848Z,99281.23
2023-05-25T14:29:33.949Z,99278.50
2023-05-25T14:32:01.097Z,99275.63
2023-05-25T14:34:28.942Z,99277.19
2023-05-25T14:36:55.759Z,99278.27
2023-05-25T14:39:22.531Z,99281.41
2023-05-25T14:41:49.250Z,99285.84
2023-05-25T14:44:15.960Z,99283.98
2023-05-25T14:46:42.758Z,99294.30
2023-05-25T14:49:09.874Z,99295.65
2023-05-25T14:51:37.451Z,99285.78
2023-05-25T14:54:05.898Z,99289.63
2023-05-25T14:56:33.655Z,99287.05
2023-05-25T14:59:02.772Z,99288.48
2023-05-25T15:01:29.931Z,99291.53
2023-05-25T15:03:56.995Z,99291.48
2023-05-25T15:06:23.948Z,99294.58
2023-05-25T15:08:50.901Z,99293.83
2023-05-25T15:11:18.177Z,99295.89
2023-05-25T15:13:45.398Z,99296.64
2023-05-25T15:16:13.260Z,99301.19
2023-05-25T15:18:40.265Z,99301.85
2023-05-25T15:21:07.329Z,99305.39
2023-05-25T15:23:34.076Z,99300.33
2023-05-25T15:26:04.383Z,99306.67
2023-05-25T15:28:31.352Z,99307.60
2023-05-25T15:31:00.861Z,99312.45
2023-05-25T15:33:44.482Z,99314.29
2023-05-25T15:36:19.855Z,99314.92
2023-05-25T15:38:48.566Z,99313.18
2023-05-25T15:41:16.396Z,99313.80
2023-05-25T15:43:53.950Z,99311.08
2023-05-25T15:46:21.663Z,99304.79
2023-05-25T15:48:48.661Z,99309.27
2023-05-25T15:51:15.475Z,99311.23
2023-05-25T15:53:43.064Z,99309.17
2023-05-25T15:56:10.111Z,99310.79
2023-05-25T15:58:37.161Z,99310.29
2023-05-25T16:01:04.077Z,99308.29
2023-05-25T16:03:30.999Z,99302.33
2023-05-25T16:05:57.993Z,99307.14
2023-05-25T16:08:25.367Z,99305.11
2023-05-25T16:10:51.900Z,99303.70
2023-05-25T16:13:18.715Z,99303.13
2023-05-25T16:15:45.952Z,99302.53
2023-05-25T16:18:12.737Z,99302.52
2023-05-25T16:20:40.876Z,99298.35
2023-05-25T16:23:08.140Z,99296.82
2023-05-25T16:25:34.918Z,99294.90
2023-05-25T16:28:01.993Z,99292.06
2023-05-25T16:30:29.018Z,99288.83
2023-05-25T16:32:55.858Z,99289.85
2023-05-25T16:35:22.548Z,99290.64
2023-05-25T16:37:49.225Z,99291.61
2023-05-25T16:40:16.167Z,99290.77
2023-05-25T16:42:43.074Z,99286.60
2023-05-25T16:45:10.438Z,99282.95
2023-05-25T16:47:37.193Z,99284.40
2023-05-25T16:50:05.141Z,99284.48
2023-05-25T16:52:32.202Z,99284.23
2023-05-25T16:54:58.908Z,99292.51
2023-05-25T16:57:26.208Z,99290.65
2023-05-25T16:59:53.760Z,99292.30
2023-05-25T17:02:20.662Z,99291.09
2023-05-25T17:04:47.965Z,99295.95
2023-05-25T17:07:14.761Z,99291.44
2023-05-25T17:09:42.536Z,99295.77
2023-05-25T17:12:09.479Z,99295.08
2023-05-25T17:14:36.286Z,99298.54
2023-05-25T17:17:03.292Z,99296.77
2023-05-25T17:19:30.315Z,99301.21
2023-05-25T17:21:56.980Z,99299.22
2023-05-25T17:24:23.848Z,99295.84
2023-05-25T17:26:51.183Z,99300.90
2023-05-25T17:29:20.756Z,99300.56
2023-05-25T17:31:48.876Z,99294.42
2023-05-25T17:34:16.521Z,99296.58
2023-05-25T17:36:43.851Z,99295.28
2023-05-25T17:39:10.797Z,99301.77
2023-05-25T17:41:37.649Z,99305.77
2023-05-25T17:44:04.376Z,99303.35
2023-05-25T17:46:31.427Z,99302.52
2023-05-25T17:48:58.468Z,99303.21
2023-05-25T17:51:25.546Z,99305.34
2023-05-25T17:53:52.332Z,99302.11
2023-05-25T17:56:19.346Z,99302.36
2023-05-25T17:58:47.078Z,99302.89
2023-05-25T18:01:14.801Z,99302.33
2023-05-25T18:03:42.980Z,99301.90
2023-05-25T18:06:09.829Z,99304.60
2023-05-25T18:08:36.655Z,99309.45
2023-05-25T18:11:03.525Z,99310.77
2023-05-25T18:13:31.069Z,99313.80
2023-05-25T18:15:57.878Z,99312.41
2023-05-25T18:18:24.946Z,99313.92
2023-05-25T18:20:51.781Z,99320.17
2023-05-25T18:23:18.559Z,99318.77
2023-05-25T18:25:47.501Z,99325.21
2023-05-25T18:28:14.376Z,99328.12
2023-05-25T18:30:44.269Z,99327.80
2023-05-25T18:33:11.013Z,99324.32
2023-05-25T18:35:37.945Z,99328.95
2023-05-25T18:38:04.731Z,99332.94
2023-05-25T18:40:31.752Z,99335.05
2023-05-25T18:42:58.503Z,99336.50
2023-05-25T18:45:25.559Z,99334.23
2023-05-25T18:47:52.838Z,99335.91
2023-05-25T18:50:20.158Z,99334.33
2023-05-25T18:52:50.309Z,99330.98
2023-05-25T18:55:18.162Z,99332.21
2023-05-25T18:57:45.333Z,99330.35
2023-05-25T19:00:13.283Z,99332.23
2023-05-25T19:02:40.713Z,99330.24
2023-05-25T19:05:10.822Z,99335.27
2023-05-25T19:07:51.144Z,99334.95
2023-05-25T19:10:27.119Z,99335.02
2023-05-25T19:12:54.758Z,99338.13
2023-05-25T19:15:21.671Z,99338.79
2023-05-25T19:17:48.522Z,99339.30
2023-05-25T19:20:15.640Z,99336.45
2023-05-25T19:22:43.013Z,99335.55
2023-05-25T19:25:10.072Z,99333.00
2023-05-25T19:27:37.051Z,99330.60
2023-05-25T19:30:04.534Z,99326.36
2023-05-25T19:32:31.820Z,99324.31
2023-05-25T19:34:59.041Z,99326.26
2023-05-25T19:37:26.010Z,99326.52
2023-05-25T19:39:52.994Z,99324.18
2023-05-25T19:42:19.823Z,99330.40
2023-05-25T19:44:46.747Z,99325.80
2023-05-25T19:47:13.893Z,99325.52
2023-05-25T19:49:40.835Z,99325.09
2023-05-25T19:52:07.619Z,99327.87
2023-05-25T19:54:34.545Z,99331.50
2023-05-25T19:57:02.504Z,99334.21
2023-05-25T19:59:30.662Z,99333.48
2023-05-25T20:01:57.533Z,99333.80
2023-05-25T20:04:24.990Z,99337.98
2023-05-25T20:06:52.831Z,99339.70
2023-05-25T20:09:24.078Z,99337.55
2023-05-25T20:11:51.015Z,99338.95
2023-05-25T20:14:19.999Z,99342.17
2023-05-25T20:16:47.257Z,99345.13
2023-05-25T20:19:14.243Z,99346.30
2023-05-25T20:21:41.154Z,99343.46
2023-05-25T20:24:07.821Z,99342.64
2023-05-25T20:26:34.609Z,99340.21
2023-05-25T20:29:01.521Z,99341.80
2023-05-25T20:31:28.487Z,99338.66
2023-05-25T20:33:55.400Z,99341.05
2023-05-25T20:36:23.544Z,99340.41
2023-05-25T20:38:50.380Z,99337.08
2023-05-25T20:41:17.140Z,99334.46
2023-05-25T20:43:44.165Z,99335.48
2023-05-25T20:46:11.080Z,99337.83
2023-05-25T20:48:38.770Z,99336.63
2023-05-25T20:51:05.521Z,99334.40
2023-05-25T20:53:32.278Z,99334.10
2023-05-25T20:56:01.246Z,99334.52
2023-05-25T20:58:28.192Z,99325.93
2023-05-25T21:00:54.937Z,99328.73
2023-05-25T21:03:22.591Z,99332.36
2023-05-25T21:05:49.638Z,99330.56
2023-05-25T21:08:16.485Z,99333.04
2023-05-25T21:10:59.018Z,99331.77
2023-05-25T21:13:26.047Z,99331.46
2023-05-25T21:15:52.987Z,99333.04
2023-05-25T21:18:20.924Z,99330.73
2023-05-25T21:20:49.841Z,99328.63
2023-05-25T21:23:16.685Z,99329.48
2023-05-25T21:25:44.316Z,99326.21
2023-05-25T21:28:11.415Z,99326.30
2023-05-25T21:30:41.319Z,99323.94
2023-05-25T21:33:08.229Z,99323.87
2023-05-25T21:35:35.299Z,99324.11
2023-05-25T21:38:02.076Z,99324.98
2023-05-25T21:40:29.100Z,99326.98
2023-05-25T21:42:55.644Z,99318.54
2023-05-25T21:45:22.569Z,99313.27
2023-05-25T21:47:49.376Z,99312.32
2023-05-25T21:50:16.680Z,99311.02
2023-05-25T21:52:43.501Z,99309.31
2023-05-25T21:55:10.454Z,99313.20
2023-05-25T21:57:37.900Z,99313.95
2023-05-25T22:00:08.437Z,99316.32
2023-05-25T22:02:44.249Z,99314.11
2023-05-25T22:05:11.080Z,99318.86
2023-05-25T22:07:37.878Z,99318.76
2023-05-25T22:10:05.523Z,99316.02
2023-05-25T22:12:34.495Z,99313.77
2023-05-25T22:15:01.669Z,99312.80
2023-05-25T22:17:28.534Z,99314.81
2023-05-25T22:20:07.445Z,99312.45
2023-05-25T22:22:36.934Z,99310.90
2023-05-25T22:25:04.594Z,99306.92
2023-05-25T22:27:32.485Z,99307.79
2023-05-25T22:29:59.314Z,99307.82
2023-05-25T22:32:26.793Z,99308.04
2023-05-25T22:34:53.908Z,99304.30
2023-05-25T22:37:20.656Z,99302.52
2023-05-25T22:39:49.543Z,99301.58
2023-05-25T22:42:16.177Z,99308.17
2023-05-25T22:44:42.918Z,99307.45
2023-05-25T22:47:09.791Z,99308.39
2023-05-25T22:49:41.187Z,99313.55
2023-05-25T22:52:10.826Z,99313.50
2023-05-25T22:54:38.214Z,99309.38
2023-05-25T22:57:06.270Z,99314.29
2023-05-25T22:59:33.553Z,99311.64
2023-05-25T23:02:00.349Z,99308.95
2023-05-25T23:04:27.101Z,99305.64
2023-05-25T23:06:53.772Z,99306.46
2023-05-25T23:09:20.559Z,99305.83
2023-05-25T23:11:47.411Z,99306.85
2023-05-25T23:14:14.567Z,99300.79
2023-05-25T23:16:41.593Z,99302.17
2023-05-25T23:19:08.647Z,99303.36
2023-05-25T23:21:36.443Z,99298.77
2023-05-25T23:24:04.170Z,99297.27
2023-05-25T23:26:31.056Z,99292.44
2023-05-25T23:28:57.870Z,99292.52
2023-05-25T23:31:25.246Z,99294.84
2023-05-25T23:33:52.564Z,99295.16
2023-05-25T23:36:20.428Z,99296.75
2023-05-25T23:38:47.092Z,99292.75
2023-05-25T23:41:18.056Z,99295.94
2023-05-25T23:43:45.801Z,99292.64
2023-05-25T23:46:16.703Z,99292.34
2023-05-25T23:48:44.572Z,99292.90
2023-05-25T23:51:11.739Z,99301.59
2023-05-25T23:53:38.578Z,99299.15
2023-05-25T23:56:05.707Z,99300.54
2023-05-25T23:58:32.659Z,99296.59
